NSZ4019 ESPA-ESSA
Flight info
| Callsign | NSZ4019 |
|---|---|
| Flight time | N/A |
| Altitude | 36000 |
| Route | ESPA/14 VERAG DCT DEDIT DCT SIPRI T31 VACRA |
| Aircraft | B738/M-SDE2E3FGHIRWXY/LB1 |
Departure
| Time | N/A |
|---|---|
| Airport | Luleå Airport (ESPA) |
Arrival
| Time | 2026-05-03 20:21 |
|---|---|
| Airport | Stockholm-Arlanda Airport (ESSA) |
| Time | Latitude | Longitude | Altitude | Speed | Heading |
|---|---|---|---|---|---|
| 2026-05-03 20:15 | 59.89626 | 18.15957 | 4406 ft | 227 kts | 219° |
| 2026-05-03 20:15 | 59.88382 | 18.14049 | 4168 ft | 222 kts | 219° |
| 2026-05-03 20:15 | 59.87181 | 18.12210 | 3923 ft | 214 kts | 219° |
| 2026-05-03 20:15 | 59.86016 | 18.10427 | 3651 ft | 209 kts | 219° |
| 2026-05-03 20:16 | 59.84869 | 18.08676 | 3410 ft | 208 kts | 219° |
| 2026-05-03 20:16 | 59.83722 | 18.06927 | 3164 ft | 206 kts | 219° |
| 2026-05-03 20:16 | 59.82593 | 18.05210 | 2938 ft | 201 kts | 218° |
| 2026-05-03 20:16 | 59.81502 | 18.03551 | 2739 ft | 194 kts | 218° |
| 2026-05-03 20:17 | 59.80443 | 18.01947 | 2552 ft | 188 kts | 217° |
| 2026-05-03 20:17 | 59.79260 | 18.01024 | 2491 ft | 182 kts | 185° |
| 2026-05-03 20:17 | 59.78019 | 18.00825 | 2495 ft | 177 kts | 198° |
| 2026-05-03 20:17 | 59.76823 | 18.00188 | 2501 ft | 176 kts | 194° |
| 2026-05-03 20:18 | 59.75678 | 17.99782 | 2367 ft | 160 kts | 193° |
| 2026-05-03 20:18 | 59.74611 | 17.99408 | 2157 ft | 152 kts | 193° |
| 2026-05-03 20:18 | 59.73593 | 17.99042 | 1966 ft | 150 kts | 193° |
| 2026-05-03 20:18 | 59.72558 | 17.98666 | 1766 ft | 152 kts | 192° |
| 2026-05-03 20:19 | 59.71521 | 17.98291 | 1536 ft | 151 kts | 191° |
| 2026-05-03 20:19 | 59.70485 | 17.97914 | 1301 ft | 152 kts | 191° |
| 2026-05-03 20:19 | 59.69441 | 17.97531 | 994 ft | 152 kts | 191° |
| 2026-05-03 20:19 | 59.68389 | 17.97138 | 709 ft | 155 kts | 190° |
| 2026-05-03 20:20 | 59.67331 | 17.96764 | 531 ft | 153 kts | 189° |
| 2026-05-03 20:20 | 59.66279 | 17.96391 | 396 ft | 154 kts | 188° |
| 2026-05-03 20:20 | 59.65225 | 17.96019 | 224 ft | 157 kts | 189° |
| 2026-05-03 20:20 | 59.64163 | 17.95634 | 112 ft | 148 kts | 189° |
| 2026-05-03 20:21 | 59.63336 | 17.95330 | 121 ft | 91 kts | 190° |
| 2026-05-03 20:21 | 59.63000 | 17.95134 | 135 ft | 18 kts | 213° |
| 2026-05-03 20:21 | 59.62896 | 17.94978 | 135 ft | 19 kts | 219° |
| 2026-05-03 20:21 | 59.62855 | 17.94896 | 136 ft | 10 kts | 239° |
| 2026-05-03 20:22 | 59.62872 | 17.94773 | 136 ft | 11 kts | 335° |
| 2026-05-03 20:22 | 59.62960 | 17.94784 | 134 ft | 16 kts | 11° |
| 2026-05-03 20:22 | 59.63088 | 17.94831 | 130 ft | 22 kts | 10° |
| 2026-05-03 20:22 | 59.63254 | 17.94893 | 124 ft | 27 kts | 10° |
| 2026-05-03 20:23 | 59.63448 | 17.94962 | 118 ft | 30 kts | 10° |
| 2026-05-03 20:23 | 59.63665 | 17.95041 | 112 ft | 33 kts | 9° |
| 2026-05-03 20:23 | 59.63874 | 17.95116 | 109 ft | 21 kts | 10° |
| 2026-05-03 20:23 | 59.64023 | 17.95170 | 107 ft | 23 kts | 10° |
| 2026-05-03 20:24 | 59.64185 | 17.95230 | 106 ft | 16 kts | 10° |
| 2026-05-03 20:24 | 59.64303 | 17.95205 | 104 ft | 19 kts | 332° |
| 2026-05-03 20:24 | 59.64393 | 17.95007 | 103 ft | 21 kts | 289° |
| 2026-05-03 20:24 | 59.64386 | 17.94723 | 102 ft | 22 kts | 243° |
| 2026-05-03 20:25 | 59.64305 | 17.94466 | 102 ft | 23 kts | 238° |
| 2026-05-03 20:25 | 59.64220 | 17.94197 | 103 ft | 23 kts | 238° |
| 2026-05-03 20:25 | 59.64135 | 17.93931 | 108 ft | 23 kts | 237° |
| 2026-05-03 20:25 | 59.64052 | 17.93672 | 111 ft | 22 kts | 238° |
| 2026-05-03 20:26 | 59.63988 | 17.93389 | 111 ft | 24 kts | 269° |
| 2026-05-03 20:26 | 59.64046 | 17.93079 | 111 ft | 24 kts | 296° |
| 2026-05-03 20:26 | 59.64107 | 17.92846 | 111 ft | 16 kts | 297° |
| 2026-05-03 20:26 | 59.64161 | 17.92642 | 112 ft | 17 kts | 297° |
| 2026-05-03 20:27 | 59.64215 | 17.92436 | 113 ft | 17 kts | 297° |
| 2026-05-03 20:27 | 59.64268 | 17.92236 | 112 ft | 18 kts | 297° |
| 2026-05-03 20:27 | 59.64327 | 17.92081 | 112 ft | 12 kts | 347° |
| 2026-05-03 20:27 | 59.64421 | 17.92102 | 113 ft | 15 kts | 9° |
| 2026-05-03 20:28 | 59.64534 | 17.92144 | 111 ft | 18 kts | 12° |
| 2026-05-03 20:28 | 59.64653 | 17.92185 | 111 ft | 11 kts | 12° |
| 2026-05-03 20:28 | 59.64719 | 17.92256 | 111 ft | 12 kts | 71° |
| 2026-05-03 20:28 | 59.64706 | 17.92402 | 111 ft | 7 kts | 107° |
| 2026-05-03 20:29 | 59.64720 | 17.92490 | 110 ft | 8 kts | 36° |
| 2026-05-03 20:29 | 59.64739 | 17.92518 | 111 ft | 0 kts | 36° |
| 2026-05-03 20:29 | 59.64743 | 17.92522 | 111 ft | 0 kts | 36° |